Terminal Aerodrome Forecast
Issued by NWS Shreveport, LA

Home | Current Version | Previous Version | Text Only | Print | Product List | Glossary On
Versions: 1 2 3 4 5 6 7 8 9 10 11 12 13 14 15 16
054
FTUS44 KSHV 231249 AAA
TAFGGG
TAF AMD
KGGG 231249Z 2313/2412 20007KT P6SM FEW030 BKN050
      TEMPO 2313/2314 SCT006 BKN040
     FM231500 21009KT P6SM OVC025
     FM232100 20010KT P6SM VCTS BKN035CB
     FM240000 18006KT P6SM BKN250=

USA.gov is the U.S. government's official web portal to all federal, state and local government web resources and services.